sensor_id;sensor_type;location;lat;lon;timestamp;pressure;altitude;pressure_sealevel;temperature;humidity
72587;BME280;60621;49.576;11.024;2023-02-01T00:00:40;98751.19;;;3.29;93.35
72587;BME280;60621;49.576;11.024;2023-02-01T00:01:42;98749.34;;;3.30;92.92
72587;BME280;60621;49.576;11.024;2023-02-01T00:02:43;98751.84;;;3.35;93.62
72587;BME280;60621;49.576;11.024;2023-02-01T00:03:45;98752.34;;;3.37;93.20
72587;BME280;60621;49.576;11.024;2023-02-01T00:04:47;98752.44;;;3.32;93.22
72587;BME280;60621;49.576;11.024;2023-02-01T00:05:58;98749.56;;;3.33;93.10
72587;BME280;60621;49.576;11.024;2023-02-01T00:07:00;98746.00;;;3.29;93.17
72587;BME280;60621;49.576;11.024;2023-02-01T00:08:02;98746.75;;;3.30;93.26
72587;BME280;60621;49.576;11.024;2023-02-01T00:09:04;98758.44;;;3.32;93.27
72587;BME280;60621;49.576;11.024;2023-02-01T00:10:07;98746.53;;;3.40;92.35
72587;BME280;60621;49.576;11.024;2023-02-01T00:11:10;98753.00;;;3.43;92.39
72587;BME280;60621;49.576;11.024;2023-02-01T00:12:12;98745.44;;;3.41;91.99
72587;BME280;60621;49.576;11.024;2023-02-01T00:13:13;98754.84;;;3.42;92.18
72587;BME280;60621;49.576;11.024;2023-02-01T00:14:15;98737.34;;;3.43;91.54
72587;BME280;60621;49.576;11.024;2023-02-01T00:15:17;98737.47;;;3.38;92.02
72587;BME280;60621;49.576;11.024;2023-02-01T00:16:21;98740.97;;;3.33;91.82
72587;BME280;60621;49.576;11.024;2023-02-01T00:17:23;98742.19;;;3.36;92.44
72587;BME280;60621;49.576;11.024;2023-02-01T00:18:24;98745.06;;;3.48;92.34
72587;BME280;60621;49.576;11.024;2023-02-01T00:19:26;98748.81;;;3.42;92.23
72587;BME280;60621;49.576;11.024;2023-02-01T00:20:27;98740.72;;;3.43;92.26
72587;BME280;60621;49.576;11.024;2023-02-01T00:21:31;98742.38;;;3.39;91.95
72587;BME280;60621;49.576;11.024;2023-02-01T00:22:33;98737.59;;;3.32;91.70
72587;BME280;60621;49.576;11.024;2023-02-01T00:23:36;98735.00;;;3.41;91.75
72587;BME280;60621;49.576;11.024;2023-02-01T00:24:38;98742.72;;;3.46;92.06
72587;BME280;60621;49.576;11.024;2023-02-01T00:25:39;98738.75;;;3.49;91.32
72587;BME280;60621;49.576;11.024;2023-02-01T00:26:43;98731.53;;;3.46;91.31
72587;BME280;60621;49.576;11.024;2023-02-01T00:27:49;98731.81;;;3.44;91.32
72587;BME280;60621;49.576;11.024;2023-02-01T00:28:51;98733.25;;;3.50;91.20
72587;BME280;60621;49.576;11.024;2023-02-01T00:29:54;98737.81;;;3.45;91.17
72587;BME280;60621;49.576;11.024;2023-02-01T00:31:00;98734.81;;;3.51;91.21
72587;BME280;60621;49.576;11.024;2023-02-01T00:32:03;98736.81;;;3.54;91.07
72587;BME280;60621;49.576;11.024;2023-02-01T00:33:04;98735.09;;;3.50;90.43
72587;BME280;60621;49.576;11.024;2023-02-01T00:34:06;98737.75;;;3.58;90.76
72587;BME280;60621;49.576;11.024;2023-02-01T00:35:08;98735.16;;;3.58;90.57
72587;BME280;60621;49.576;11.024;2023-02-01T00:36:10;98737.09;;;3.53;90.93
72587;BME280;60621;49.576;11.024;2023-02-01T00:37:12;98726.84;;;3.56;90.70
72587;BME280;60621;49.576;11.024;2023-02-01T00:38:13;98733.13;;;3.55;90.73
72587;BME280;60621;49.576;11.024;2023-02-01T00:39:16;98733.19;;;3.64;90.57
72587;BME280;60621;49.576;11.024;2023-02-01T00:40:21;98729.94;;;3.58;90.43
72587;BME280;60621;49.576;11.024;2023-02-01T00:41:25;98729.94;;;3.58;90.48
72587;BME280;60621;49.576;11.024;2023-02-01T00:42:26;98732.41;;;3.64;90.59
72587;BME280;60621;49.576;11.024;2023-02-01T00:43:28;98736.69;;;3.59;89.87
72587;BME280;60621;49.576;11.024;2023-02-01T00:44:29;98733.88;;;3.56;90.26
72587;BME280;60621;49.576;11.024;2023-02-01T00:45:35;98730.69;;;3.59;90.29
72587;BME280;60621;49.576;11.024;2023-02-01T00:46:36;98731.66;;;3.63;90.25
72587;BME280;60621;49.576;11.024;2023-02-01T00:47:38;98731.06;;;3.66;90.03
72587;BME280;60621;49.576;11.024;2023-02-01T00:48:40;98730.31;;;3.66;90.09
72587;BME280;60621;49.576;11.024;2023-02-01T00:49:41;98730.75;;;3.68;89.63
72587;BME280;60621;49.576;11.024;2023-02-01T00:50:43;98717.72;;;3.68;90.00
72587;BME280;60621;49.576;11.024;2023-02-01T00:51:44;98719.88;;;3.66;90.10
72587;BME280;60621;49.576;11.024;2023-02-01T00:52:46;98726.00;;;3.70;89.64
72587;BME280;60621;49.576;11.024;2023-02-01T00:53:48;98723.25;;;3.75;89.12
72587;BME280;60621;49.576;11.024;2023-02-01T00:54:50;98720.38;;;3.76;88.70
72587;BME280;60621;49.576;11.024;2023-02-01T00:55:51;98731.41;;;3.73;88.63
72587;BME280;60621;49.576;11.024;2023-02-01T00:56:53;98717.91;;;3.71;88.79
72587;BME280;60621;49.576;11.024;2023-02-01T00:57:55;98731.75;;;3.80;88.96
72587;BME280;60621;49.576;11.024;2023-02-01T00:58:56;98721.59;;;3.79;88.41
72587;BME280;60621;49.576;11.024;2023-02-01T00:59:58;98723.44;;;3.78;88.63
72587;BME280;60621;49.576;11.024;2023-02-01T01:01:03;98730.50;;;3.78;88.46
72587;BME280;60621;49.576;11.024;2023-02-01T01:02:05;98725.28;;;3.78;87.99
72587;BME280;60621;49.576;11.024;2023-02-01T01:03:07;98708.75;;;3.82;87.70
72587;BME280;60621;49.576;11.024;2023-02-01T01:04:18;98714.53;;;3.79;87.98
72587;BME280;60621;49.576;11.024;2023-02-01T01:05:20;98720.44;;;3.85;87.47
72587;BME280;60621;49.576;11.024;2023-02-01T01:06:27;98717.63;;;3.81;87.35
72587;BME280;60621;49.576;11.024;2023-02-01T01:07:29;98713.91;;;3.74;87.43
72587;BME280;60621;49.576;11.024;2023-02-01T01:08:30;98728.22;;;3.76;87.53
72587;BME280;60621;49.576;11.024;2023-02-01T01:09:32;98727.94;;;3.87;87.59
72587;BME280;60621;49.576;11.024;2023-02-01T01:10:34;98732.22;;;3.82;87.21
72587;BME280;60621;49.576;11.024;2023-02-01T01:11:37;98729.63;;;3.82;87.34
72587;BME280;60621;49.576;11.024;2023-02-01T01:12:39;98732.09;;;3.88;87.38
72587;BME280;60621;49.576;11.024;2023-02-01T01:13:42;98729.03;;;3.85;87.11
72587;BME280;60621;49.576;11.024;2023-02-01T01:14:44;98725.47;;;3.81;87.68
72587;BME280;60621;49.576;11.024;2023-02-01T01:15:46;98732.94;;;3.74;88.60
72587;BME280;60621;49.576;11.024;2023-02-01T01:16:47;98723.56;;;3.73;89.32
72587;BME280;60621;49.576;11.024;2023-02-01T01:17:52;98731.41;;;3.73;89.58
72587;BME280;60621;49.576;11.024;2023-02-01T01:18:54;98729.88;;;3.72;89.61
72587;BME280;60621;49.576;11.024;2023-02-01T01:19:55;98729.38;;;3.70;89.29
72587;BME280;60621;49.576;11.024;2023-02-01T01:21:01;98730.25;;;3.57;90.35
72587;BME280;60621;49.576;11.024;2023-02-01T01:22:02;98726.56;;;3.58;90.35
72587;BME280;60621;49.576;11.024;2023-02-01T01:23:05;98727.50;;;3.62;90.04
72587;BME280;60621;49.576;11.024;2023-02-01T01:24:07;98734.56;;;3.62;89.89
72587;BME280;60621;49.576;11.024;2023-02-01T01:25:09;98727.78;;;3.60;90.55
72587;BME280;60621;49.576;11.024;2023-02-01T01:26:14;98731.59;;;3.54;90.96
72587;BME280;60621;49.576;11.024;2023-02-01T01:27:16;98733.63;;;3.57;90.61
72587;BME280;60621;49.576;11.024;2023-02-01T01:28:24;98736.03;;;3.54;90.94
72587;BME280;60621;49.576;11.024;2023-02-01T01:29:25;98728.03;;;3.50;91.32
72587;BME280;60621;49.576;11.024;2023-02-01T01:30:27;98736.75;;;3.46;91.71
72587;BME280;60621;49.576;11.024;2023-02-01T01:31:29;98740.72;;;3.43;92.68
72587;BME280;60621;49.576;11.024;2023-02-01T01:32:31;98738.00;;;3.48;92.37
72587;BME280;60621;49.576;11.024;2023-02-01T01:33:33;98733.66;;;3.44;92.19
72587;BME280;60621;49.576;11.024;2023-02-01T01:34:34;98733.72;;;3.52;91.89
72587;BME280;60621;49.576;11.024;2023-02-01T01:35:36;98738.94;;;3.52;91.76
72587;BME280;60621;49.576;11.024;2023-02-01T01:36:37;98741.97;;;3.46;91.23
72587;BME280;60621;49.576;11.024;2023-02-01T01:37:39;98734.91;;;3.46;91.61
72587;BME280;60621;49.576;11.024;2023-02-01T01:38:42;98731.72;;;3.49;91.25
72587;BME280;60621;49.576;11.024;2023-02-01T01:39:43;98735.28;;;3.53;91.21
72587;BME280;60621;49.576;11.024;2023-02-01T01:40:46;98729.63;;;3.60;90.84
72587;BME280;60621;49.576;11.024;2023-02-01T01:41:47;98735.16;;;3.58;90.80
72587;BME280;60621;49.576;11.024;2023-02-01T01:42:49;98726.69;;;3.53;90.51
72587;BME280;60621;49.576;11.024;2023-02-01T01:44:05;98728.22;;;3.54;90.49
72587;BME280;60621;49.576;11.024;2023-02-01T01:45:29;98727.75;;;3.52;90.96
72587;BME280;60621;49.576;11.024;2023-02-01T01:46:39;98729.69;;;3.46;90.96
72587;BME280;60621;49.576;11.024;2023-02-01T01:47:48;98724.66;;;3.50;90.83
72587;BME280;60621;49.576;11.024;2023-02-01T01:50:01;98726.06;;;3.56;90.71
72587;BME280;60621;49.576;11.024;2023-02-01T01:51:08;98708.47;;;3.62;90.40
72587;BME280;60621;49.576;11.024;2023-02-01T01:52:11;98716.44;;;3.56;90.14
72587;BME280;60621;49.576;11.024;2023-02-01T01:53:17;98709.00;;;3.50;90.77
72587;BME280;60621;49.576;11.024;2023-02-01T01:54:33;98716.88;;;3.58;90.64
72587;BME280;60621;49.576;11.024;2023-02-01T01:55:38;98709.25;;;3.62;90.00
72587;BME280;60621;49.576;11.024;2023-02-01T01:56:45;98703.38;;;3.56;89.70
72587;BME280;60621;49.576;11.024;2023-02-01T01:57:56;98715.81;;;3.59;89.70
72587;BME280;60621;49.576;11.024;2023-02-01T01:58:59;98714.75;;;3.60;89.71
72587;BME280;60621;49.576;11.024;2023-02-01T02:00:05;98713.25;;;3.68;89.48
72587;BME280;60621;49.576;11.024;2023-02-01T02:01:09;98716.31;;;3.62;89.46
72587;BME280;60621;49.576;11.024;2023-02-01T02:02:11;98708.28;;;3.58;89.40
72587;BME280;60621;49.576;11.024;2023-02-01T02:03:20;98717.66;;;3.59;89.91
72587;BME280;60621;49.576;11.024;2023-02-01T02:04:23;98706.75;;;3.57;89.95
72587;BME280;60621;49.576;11.024;2023-02-01T02:05:25;98709.94;;;3.54;90.25
72587;BME280;60621;49.576;11.024;2023-02-01T02:06:43;98710.47;;;3.65;90.02
72587;BME280;60621;49.576;11.024;2023-02-01T02:07:50;98708.94;;;3.64;89.10
72587;BME280;60621;49.576;11.024;2023-02-01T02:08:54;98708.34;;;3.67;89.45
72587;BME280;60621;49.576;11.024;2023-02-01T02:09:56;98702.38;;;3.75;88.85
72587;BME280;60621;49.576;11.024;2023-02-01T02:11:01;98703.41;;;3.65;89.16
72587;BME280;60621;49.576;11.024;2023-02-01T02:12:03;98703.13;;;3.67;89.29
72587;BME280;60621;49.576;11.024;2023-02-01T02:13:05;98696.53;;;3.69;88.57
72587;BME280;60621;49.576;11.024;2023-02-01T02:15:12;98702.19;;;3.63;89.52
72587;BME280;60621;49.576;11.024;2023-02-01T02:24:21;98692.13;;;3.78;88.04
72587;BME280;60621;49.576;11.024;2023-02-01T02:29:04;98687.69;;;3.79;87.96
72587;BME280;60621;49.576;11.024;2023-02-01T02:32:20;98688.28;;;3.76;88.82
72587;BME280;60621;49.576;11.024;2023-02-01T02:33:41;98690.53;;;3.69;87.66
72587;BME280;60621;49.576;11.024;2023-02-01T02:34:57;98688.56;;;3.74;88.10
72587;BME280;60621;49.576;11.024;2023-02-01T02:37:42;98681.50;;;3.75;88.51
72587;BME280;60621;49.576;11.024;2023-02-01T02:41:28;98690.91;;;3.76;88.41
72587;BME280;60621;49.576;11.024;2023-02-01T02:43:01;98696.13;;;3.76;88.33
72587;BME280;60621;49.576;11.024;2023-02-01T02:46:05;98681.44;;;3.89;87.82
72587;BME280;60621;49.576;11.024;2023-02-01T02:47:42;98688.50;;;3.88;87.46
72587;BME280;60621;49.576;11.024;2023-02-01T02:48:55;98683.09;;;3.84;87.48
72587;BME280;60621;49.576;11.024;2023-02-01T02:50:21;98690.00;;;3.80;88.01
72587;BME280;60621;49.576;11.024;2023-02-01T02:51:49;98683.59;;;3.87;87.36
72587;BME280;60621;49.576;11.024;2023-02-01T02:53:13;98678.94;;;3.83;87.95
72587;BME280;60621;49.576;11.024;2023-02-01T02:54:36;98684.19;;;3.83;87.42
72587;BME280;60621;49.576;11.024;2023-02-01T02:55:51;98678.06;;;3.88;87.78
72587;BME280;60621;49.576;11.024;2023-02-01T02:56:54;98683.13;;;3.93;87.16
72587;BME280;60621;49.576;11.024;2023-02-01T02:58:16;98664.41;;;3.91;86.87
72587;BME280;60621;49.576;11.024;2023-02-01T02:59:38;98670.84;;;3.85;87.80
72587;BME280;60621;49.576;11.024;2023-02-01T03:01:01;98656.59;;;3.91;87.29
72587;BME280;60621;49.576;11.024;2023-02-01T03:02:22;98661.81;;;3.91;86.40
72587;BME280;60621;49.576;11.024;2023-02-01T03:03:43;98657.94;;;3.89;86.59
72587;BME280;60621;49.576;11.024;2023-02-01T03:05:10;98655.06;;;3.90;87.29
72587;BME280;60621;49.576;11.024;2023-02-01T03:06:16;98652.91;;;3.92;86.95
72587;BME280;60621;49.576;11.024;2023-02-01T03:08:45;98647.81;;;3.87;86.66
72587;BME280;60621;49.576;11.024;2023-02-01T03:09:47;98640.91;;;3.91;87.27
72587;BME280;60621;49.576;11.024;2023-02-01T03:10:54;98637.72;;;3.94;86.83
72587;BME280;60621;49.576;11.024;2023-02-01T03:12:04;98643.53;;;3.91;87.10
72587;BME280;60621;49.576;11.024;2023-02-01T03:13:39;98639.09;;;3.92;87.17
72587;BME280;60621;49.576;11.024;2023-02-01T03:14:45;98642.00;;;3.90;86.89
72587;BME280;60621;49.576;11.024;2023-02-01T03:16:11;98649.34;;;3.88;86.53
72587;BME280;60621;49.576;11.024;2023-02-01T03:17:19;98647.09;;;3.95;86.09
72587;BME280;60621;49.576;11.024;2023-02-01T03:19:50;98651.19;;;3.88;86.72
72587;BME280;60621;49.576;11.024;2023-02-01T03:20:53;98655.00;;;3.81;86.15
72587;BME280;60621;49.576;11.024;2023-02-01T03:22:08;98658.97;;;3.79;87.32
72587;BME280;60621;49.576;11.024;2023-02-01T03:23:13;98670.94;;;3.71;87.51
72587;BME280;60621;49.576;11.024;2023-02-01T03:24:25;98666.81;;;3.79;87.26
72587;BME280;60621;49.576;11.024;2023-02-01T03:25:34;98670.66;;;3.81;87.20
72587;BME280;60621;49.576;11.024;2023-02-01T03:26:38;98664.19;;;3.79;86.46
72587;BME280;60621;49.576;11.024;2023-02-01T03:27:49;98651.63;;;3.81;86.61
72587;BME280;60621;49.576;11.024;2023-02-01T03:28:59;98653.75;;;3.79;87.29
72587;BME280;60621;49.576;11.024;2023-02-01T03:30:21;98647.78;;;3.78;86.47
72587;BME280;60621;49.576;11.024;2023-02-01T03:31:24;98638.72;;;3.76;87.19
72587;BME280;60621;49.576;11.024;2023-02-01T03:32:26;98644.53;;;3.73;87.80
72587;BME280;60621;49.576;11.024;2023-02-01T03:33:28;98637.16;;;3.75;87.96
72587;BME280;60621;49.576;11.024;2023-02-01T03:34:31;98639.66;;;3.80;87.56
72587;BME280;60621;49.576;11.024;2023-02-01T03:35:53;98642.59;;;3.87;87.07
72587;BME280;60621;49.576;11.024;2023-02-01T03:37:03;98645.38;;;3.91;86.76
72587;BME280;60621;49.576;11.024;2023-02-01T03:39:25;98646.75;;;3.88;86.68
72587;BME280;60621;49.576;11.024;2023-02-01T03:40:32;98653.66;;;3.93;86.54
72587;BME280;60621;49.576;11.024;2023-02-01T03:41:42;98646.31;;;3.95;87.06
72587;BME280;60621;49.576;11.024;2023-02-01T03:42:49;98645.69;;;3.98;86.05
72587;BME280;60621;49.576;11.024;2023-02-01T03:44:06;98654.00;;;4.00;85.69
72587;BME280;60621;49.576;11.024;2023-02-01T03:45:21;98646.31;;;4.03;85.76
72587;BME280;60621;49.576;11.024;2023-02-01T03:46:35;98637.72;;;4.03;85.48
72587;BME280;60621;49.576;11.024;2023-02-01T03:47:45;98652.47;;;4.07;85.75
72587;BME280;60621;49.576;11.024;2023-02-01T03:48:50;98652.03;;;4.05;85.39
72587;BME280;60621;49.576;11.024;2023-02-01T03:49:58;98647.09;;;3.95;86.40
72587;BME280;60621;49.576;11.024;2023-02-01T03:51:03;98644.31;;;3.92;86.60
72587;BME280;60621;49.576;11.024;2023-02-01T03:52:10;98638.72;;;3.84;87.17
72587;BME280;60621;49.576;11.024;2023-02-01T03:53:18;98631.69;;;3.85;86.83
72587;BME280;60621;49.576;11.024;2023-02-01T03:54:20;98630.94;;;3.93;86.31
72587;BME280;60621;49.576;11.024;2023-02-01T03:55:23;98631.72;;;3.94;86.76
72587;BME280;60621;49.576;11.024;2023-02-01T03:56:27;98633.56;;;3.93;86.45
72587;BME280;60621;49.576;11.024;2023-02-01T03:57:33;98626.97;;;3.96;86.57
72587;BME280;60621;49.576;11.024;2023-02-01T03:58:37;98629.22;;;3.89;87.19
72587;BME280;60621;49.576;11.024;2023-02-01T03:59:43;98628.63;;;3.92;87.09
72587;BME280;60621;49.576;11.024;2023-02-01T04:00:55;98622.03;;;3.85;87.55
72587;BME280;60621;49.576;11.024;2023-02-01T04:01:58;98622.94;;;3.81;87.60
72587;BME280;60621;49.576;11.024;2023-02-01T04:02:59;98629.09;;;3.94;87.11
72587;BME280;60621;49.576;11.024;2023-02-01T04:04:01;98614.84;;;4.00;86.14
72587;BME280;60621;49.576;11.024;2023-02-01T04:05:02;98617.78;;;4.07;85.98
72587;BME280;60621;49.576;11.024;2023-02-01T04:06:05;98620.88;;;4.09;85.97
72587;BME280;60621;49.576;11.024;2023-02-01T04:07:06;98612.25;;;4.00;86.73
72587;BME280;60621;49.576;11.024;2023-02-01T04:08:08;98610.06;;;3.93;87.05
72587;BME280;60621;49.576;11.024;2023-02-01T04:09:09;98611.16;;;4.01;87.20
72587;BME280;60621;49.576;11.024;2023-02-01T04:10:11;98610.25;;;4.05;86.63
72587;BME280;60621;49.576;11.024;2023-02-01T04:11:13;98612.28;;;4.08;86.54
72587;BME280;60621;49.576;11.024;2023-02-01T04:12:15;98619.06;;;4.18;86.26
72587;BME280;60621;49.576;11.024;2023-02-01T04:13:16;98612.72;;;4.10;86.17
72587;BME280;60621;49.576;11.024;2023-02-01T04:14:18;98614.41;;;4.06;86.67
72587;BME280;60621;49.576;11.024;2023-02-01T04:15:20;98617.31;;;4.05;86.75
72587;BME280;60621;49.576;11.024;2023-02-01T04:16:21;98618.25;;;4.09;86.82
72587;BME280;60621;49.576;11.024;2023-02-01T04:17:23;98625.94;;;4.14;86.66
72587;BME280;60621;49.576;11.024;2023-02-01T04:18:25;98626.22;;;4.04;86.68
72587;BME280;60621;49.576;11.024;2023-02-01T04:19:27;98628.84;;;4.04;87.52
72587;BME280;60621;49.576;11.024;2023-02-01T04:20:29;98617.19;;;4.10;87.31
72587;BME280;60621;49.576;11.024;2023-02-01T04:21:31;98609.63;;;4.00;87.54
72587;BME280;60621;49.576;11.024;2023-02-01T04:22:32;98603.91;;;3.89;88.21
72587;BME280;60621;49.576;11.024;2023-02-01T04:23:34;98616.81;;;3.85;88.74
72587;BME280;60621;49.576;11.024;2023-02-01T04:24:35;98613.28;;;3.90;88.73
72587;BME280;60621;49.576;11.024;2023-02-01T04:25:38;98620.34;;;3.90;89.13
72587;BME280;60621;49.576;11.024;2023-02-01T04:26:39;98607.41;;;3.84;89.25
72587;BME280;60621;49.576;11.024;2023-02-01T04:27:41;98610.72;;;3.99;88.75
72587;BME280;60621;49.576;11.024;2023-02-01T04:28:42;98607.59;;;3.88;88.83
72587;BME280;60621;49.576;11.024;2023-02-01T04:29:44;98611.28;;;3.87;89.49
72587;BME280;60621;49.576;11.024;2023-02-01T04:30:50;98614.06;;;3.91;89.05
72587;BME280;60621;49.576;11.024;2023-02-01T04:31:52;98604.97;;;3.88;89.28
72587;BME280;60621;49.576;11.024;2023-02-01T04:32:53;98617.22;;;3.79;88.99
72587;BME280;60621;49.576;11.024;2023-02-01T04:33:55;98613.38;;;3.76;89.45
72587;BME280;60621;49.576;11.024;2023-02-01T04:34:58;98620.31;;;3.81;88.82
72587;BME280;60621;49.576;11.024;2023-02-01T04:36:00;98618.78;;;3.80;88.83
72587;BME280;60621;49.576;11.024;2023-02-01T04:37:02;98609.38;;;3.79;88.83
72587;BME280;60621;49.576;11.024;2023-02-01T04:38:03;98621.53;;;3.83;88.69
72587;BME280;60621;49.576;11.024;2023-02-01T04:39:05;98622.03;;;3.85;88.85
72587;BME280;60621;49.576;11.024;2023-02-01T04:40:07;98617.41;;;3.82;88.38
72587;BME280;60621;49.576;11.024;2023-02-01T04:41:08;98614.47;;;3.84;88.32
72587;BME280;60621;49.576;11.024;2023-02-01T04:42:10;98616.16;;;3.80;88.89
72587;BME280;60621;49.576;11.024;2023-02-01T04:43:11;98614.63;;;3.79;88.88
72587;BME280;60621;49.576;11.024;2023-02-01T04:44:15;98614.47;;;3.75;88.98
72587;BME280;60621;49.576;11.024;2023-02-01T04:45:17;98619.06;;;3.78;89.01
72587;BME280;60621;49.576;11.024;2023-02-01T04:46:19;98614.78;;;3.82;88.67
72587;BME280;60621;49.576;11.024;2023-02-01T04:47:21;98620.63;;;3.88;89.14
72587;BME280;60621;49.576;11.024;2023-02-01T04:48:23;98615.25;;;3.84;89.07
72587;BME280;60621;49.576;11.024;2023-02-01T04:49:25;98615.88;;;3.81;89.04
72587;BME280;60621;49.576;11.024;2023-02-01T04:50:28;98618.94;;;3.83;89.21
72587;BME280;60621;49.576;11.024;2023-02-01T04:51:29;98619.06;;;3.78;89.05
72587;BME280;60621;49.576;11.024;2023-02-01T04:52:31;98610.16;;;3.79;89.77
72587;BME280;60621;49.576;11.024;2023-02-01T04:53:33;98609.38;;;3.79;89.33
72587;BME280;60621;49.576;11.024;2023-02-01T04:54:35;98606.16;;;3.73;89.57
72587;BME280;60621;49.576;11.024;2023-02-01T04:55:36;98608.94;;;3.77;89.91
72587;BME280;60621;49.576;11.024;2023-02-01T04:56:37;98611.06;;;3.75;89.35
72587;BME280;60621;49.576;11.024;2023-02-01T04:57:40;98610.00;;;3.76;90.18
72587;BME280;60621;49.576;11.024;2023-02-01T04:58:41;98610.28;;;3.74;89.63
72587;BME280;60621;49.576;11.024;2023-02-01T04:59:43;98605.84;;;3.75;89.48
72587;BME280;60621;49.576;11.024;2023-02-01T05:00:44;98613.34;;;3.68;89.61
72587;BME280;60621;49.576;11.024;2023-02-01T05:01:46;98606.72;;;3.62;90.04
72587;BME280;60621;49.576;11.024;2023-02-01T05:02:49;98606.88;;;3.56;90.21
72587;BME280;60621;49.576;11.024;2023-02-01T05:03:51;98613.88;;;3.56;91.02
72587;BME280;60621;49.576;11.024;2023-02-01T05:04:52;98607.63;;;3.57;91.49
72587;BME280;60621;49.576;11.024;2023-02-01T05:05:55;98609.16;;;3.58;91.44
72587;BME280;60621;49.576;11.024;2023-02-01T05:06:57;98613.13;;;3.55;90.83
72587;BME280;60621;49.576;11.024;2023-02-01T05:07:58;98619.47;;;3.63;90.41
72587;BME280;60621;49.576;11.024;2023-02-01T05:09:00;98602.72;;;3.64;90.96
72587;BME280;60621;49.576;11.024;2023-02-01T05:10:01;98619.69;;;3.75;89.63
72587;BME280;60621;49.576;11.024;2023-02-01T05:11:03;98604.94;;;3.71;89.98
72587;BME280;60621;49.576;11.024;2023-02-01T05:12:05;98614.25;;;3.63;89.93
72587;BME280;60621;49.576;11.024;2023-02-01T05:13:25;98606.72;;;3.62;89.75
72587;BME280;60621;49.576;11.024;2023-02-01T05:14:45;98606.88;;;3.65;89.95
72587;BME280;60621;49.576;11.024;2023-02-01T05:15:46;98605.84;;;3.66;90.16
72587;BME280;60621;49.576;11.024;2023-02-01T05:16:48;98606.28;;;3.68;89.39
72587;BME280;60621;49.576;11.024;2023-02-01T05:17:50;98608.72;;;3.65;90.08
72587;BME280;60621;49.576;11.024;2023-02-01T05:18:52;98606.72;;;3.62;89.84
72587;BME280;60621;49.576;11.024;2023-02-01T05:19:53;98611.31;;;3.65;89.79
72587;BME280;60621;49.576;11.024;2023-02-01T05:20:55;98608.59;;;3.70;89.75
72587;BME280;60621;49.576;11.024;2023-02-01T05:21:57;98619.38;;;3.77;89.45
72587;BME280;60621;49.576;11.024;2023-02-01T05:22:59;98615.81;;;3.73;88.67
72587;BME280;60621;49.576;11.024;2023-02-01T05:24:00;98623.06;;;3.76;88.70
72587;BME280;60621;49.576;11.024;2023-02-01T05:25:10;98616.13;;;3.71;88.82
72587;BME280;60621;49.576;11.024;2023-02-01T05:26:12;98613.81;;;3.70;88.51
72587;BME280;60621;49.576;11.024;2023-02-01T05:27:13;98611.69;;;3.72;88.63
72587;BME280;60621;49.576;11.024;2023-02-01T05:28:15;98612.88;;;3.66;88.46
72587;BME280;60621;49.576;11.024;2023-02-01T05:29:17;98615.31;;;3.62;89.07
72587;BME280;60621;49.576;11.024;2023-02-01T05:30:19;98610.69;;;3.59;88.89
72587;BME280;60621;49.576;11.024;2023-02-01T05:31:21;98613.00;;;3.60;89.27
72587;BME280;60621;49.576;11.024;2023-02-01T05:32:23;98609.94;;;3.58;89.14
72587;BME280;60621;49.576;11.024;2023-02-01T05:33:25;98621.44;;;3.57;88.52
72587;BME280;60621;49.576;11.024;2023-02-01T05:34:26;98615.31;;;3.62;88.41
72587;BME280;60621;49.576;11.024;2023-02-01T05:35:28;98622.41;;;3.70;87.55
72587;BME280;60621;49.576;11.024;2023-02-01T05:36:29;98614.84;;;3.60;87.39
72587;BME280;60621;49.576;11.024;2023-02-01T05:37:31;98617.63;;;3.64;87.39
72587;BME280;60621;49.576;11.024;2023-02-01T05:38:33;98610.25;;;3.57;87.78
72587;BME280;60621;49.576;11.024;2023-02-01T05:39:34;98609.94;;;3.58;87.54
72587;BME280;60621;49.576;11.024;2023-02-01T05:40:35;98605.47;;;3.59;87.38
72587;BME280;60621;49.576;11.024;2023-02-01T05:41:37;98599.81;;;3.57;87.50
72587;BME280;60621;49.576;11.024;2023-02-01T05:42:38;98600.84;;;3.56;87.54
72587;BME280;60621;49.576;11.024;2023-02-01T05:43:40;98601.28;;;3.49;87.46
72587;BME280;60621;49.576;11.024;2023-02-01T05:44:42;98595.31;;;3.49;88.32
72587;BME280;60621;49.576;11.024;2023-02-01T05:45:43;98594.53;;;3.48;88.17
72587;BME280;60621;49.576;11.024;2023-02-01T05:46:45;98599.00;;;3.48;88.71
72587;BME280;60621;49.576;11.024;2023-02-01T05:47:46;98598.88;;;3.53;88.36
72587;BME280;60621;49.576;11.024;2023-02-01T05:48:48;98592.03;;;3.66;87.82
72587;BME280;60621;49.576;11.024;2023-02-01T05:49:49;98594.00;;;3.69;86.92
72587;BME280;60621;49.576;11.024;2023-02-01T05:50:51;98591.13;;;3.79;86.60
72587;BME280;60621;49.576;11.024;2023-02-01T05:51:52;98589.56;;;3.69;86.44
72587;BME280;60621;49.576;11.024;2023-02-01T05:52:54;98597.09;;;3.71;87.01
72587;BME280;60621;49.576;11.024;2023-02-01T05:53:56;98586.31;;;3.64;86.94
72587;BME280;60621;49.576;11.024;2023-02-01T05:54:57;98588.63;;;3.65;87.09
72587;BME280;60621;49.576;11.024;2023-02-01T05:55:59;98585.25;;;3.65;87.25
72587;BME280;60621;49.576;11.024;2023-02-01T05:57:00;98593.38;;;3.63;86.98
72587;BME280;60621;49.576;11.024;2023-02-01T05:58:02;98587.22;;;3.59;87.38
72587;BME280;60621;49.576;11.024;2023-02-01T05:59:03;98582.91;;;3.54;87.92
72587;BME280;60621;49.576;11.024;2023-02-01T06:00:05;98582.75;;;3.59;87.43
72587;BME280;60621;49.576;11.024;2023-02-01T06:01:07;98590.63;;;3.68;86.98
72587;BME280;60621;49.576;11.024;2023-02-01T06:02:08;98588.03;;;3.68;86.58
72587;BME280;60621;49.576;11.024;2023-02-01T06:03:11;98586.50;;;3.67;86.59
72587;BME280;60621;49.576;11.024;2023-02-01T06:04:13;98574.75;;;3.56;87.05
72587;BME280;60621;49.576;11.024;2023-02-01T06:05:14;98582.91;;;3.54;86.99
72587;BME280;60621;49.576;11.024;2023-02-01T06:06:16;98585.50;;;3.54;87.93
72587;BME280;60621;49.576;11.024;2023-02-01T06:07:17;98586.13;;;3.60;87.63
72587;BME280;60621;49.576;11.024;2023-02-01T06:08:19;98582.00;;;3.59;86.63
72587;BME280;60621;49.576;11.024;2023-02-01T06:09:20;98578.03;;;3.62;86.94